createdAt,value
2017-12-27T00:00:46.920Z,2.00
2017-12-27T00:03:19.559Z,2.03
2017-12-27T00:05:51.430Z,1.97
2017-12-27T00:08:23.290Z,2.30
2017-12-27T00:10:55.174Z,1.93
2017-12-27T00:13:27.802Z,2.30
2017-12-27T00:15:59.695Z,1.70
2017-12-27T00:18:31.566Z,2.33
2017-12-27T00:21:04.227Z,2.33
2017-12-27T00:23:36.871Z,2.40
2017-12-27T00:26:08.772Z,2.40
2017-12-27T00:28:40.639Z,2.43
2017-12-27T00:31:13.294Z,2.67
2017-12-27T00:33:45.164Z,2.20
2017-12-27T00:36:17.054Z,2.27
2017-12-27T00:38:48.922Z,2.17
2017-12-27T00:41:20.798Z,2.30
2017-12-27T00:43:52.665Z,2.37
2017-12-27T00:46:24.559Z,2.27
2017-12-27T00:48:56.427Z,2.40
2017-12-27T00:51:28.323Z,2.13
2017-12-27T00:54:00.190Z,2.07
2017-12-27T00:56:32.087Z,2.20
2017-12-27T00:59:03.980Z,2.17
2017-12-27T01:01:36.627Z,2.10
2017-12-27T01:04:08.491Z,2.40
2017-12-27T01:06:40.392Z,2.13
2017-12-27T01:09:12.255Z,2.40
2017-12-27T01:11:44.139Z,2.10
2017-12-27T01:14:16.009Z,2.97
2017-12-27T01:16:47.917Z,2.00
2017-12-27T01:19:20.541Z,2.07
2017-12-27T01:21:52.437Z,2.37
2017-12-27T01:24:24.294Z,2.40
2017-12-27T01:26:56.196Z,2.10
2017-12-27T01:29:28.067Z,2.63
2017-12-27T01:31:59.952Z,2.23
2017-12-27T01:34:31.823Z,2.10
2017-12-27T01:37:03.718Z,2.63
2017-12-27T01:39:36.354Z,2.17
2017-12-27T01:42:08.250Z,2.00
2017-12-27T01:44:40.882Z,2.10
2017-12-27T01:47:12.779Z,1.90
2017-12-27T01:49:44.647Z,2.10
2017-12-27T01:52:17.304Z,1.80
2017-12-27T01:54:49.172Z,1.93
2017-12-27T01:57:21.118Z,2.77
2017-12-27T01:59:52.956Z,2.27
2017-12-27T02:02:24.846Z,2.20
2017-12-27T02:04:56.717Z,2.10
2017-12-27T02:07:28.601Z,2.00
2017-12-27T02:10:00.475Z,1.97
2017-12-27T02:12:32.362Z,1.50
2017-12-27T02:15:04.243Z,2.30
2017-12-27T02:17:36.147Z,2.33
2017-12-27T02:20:08.023Z,2.33
2017-12-27T02:22:39.910Z,2.10
2017-12-27T02:25:11.795Z,1.83
2017-12-27T02:27:43.730Z,2.30
2017-12-27T02:30:15.600Z,2.20
2017-12-27T02:32:47.490Z,1.80
2017-12-27T02:35:20.123Z,1.83
2017-12-27T02:37:52.015Z,2.50
2017-12-27T02:40:24.744Z,2.13
2017-12-27T02:42:56.615Z,2.10
2017-12-27T02:45:28.491Z,2.03
2017-12-27T02:48:00.383Z,1.80
2017-12-27T02:50:33.018Z,2.10
2017-12-27T02:53:04.923Z,1.83
2017-12-27T02:55:37.555Z,2.10
2017-12-27T02:58:09.454Z,2.37
2017-12-27T03:00:42.107Z,2.20
2017-12-27T03:03:13.990Z,2.10
2017-12-27T03:05:46.626Z,2.33
2017-12-27T03:08:18.502Z,1.80
2017-12-27T03:10:50.369Z,1.90
2017-12-27T03:13:22.272Z,1.60
2017-12-27T03:15:54.134Z,1.87
2017-12-27T03:18:26.027Z,1.80
2017-12-27T03:20:57.893Z,1.80
2017-12-27T03:23:29.786Z,1.80
2017-12-27T03:26:01.652Z,1.80
2017-12-27T03:28:34.322Z,1.80
2017-12-27T03:31:06.206Z,1.60
2017-12-27T03:33:38.864Z,1.77
2017-12-27T03:36:10.727Z,1.70
2017-12-27T03:38:43.390Z,1.57
2017-12-27T03:41:15.252Z,2.07
2017-12-27T03:43:47.148Z,1.80
2017-12-27T03:46:19.019Z,1.70
2017-12-27T03:48:50.923Z,1.70
2017-12-27T03:51:22.783Z,1.70
2017-12-27T03:53:54.674Z,1.60
2017-12-27T03:56:27.303Z,1.90
2017-12-27T03:58:59.205Z,1.90
2017-12-27T04:01:31.827Z,2.00
2017-12-27T04:04:03.706Z,1.53
2017-12-27T04:06:35.570Z,1.80
2017-12-27T04:09:07.476Z,1.90
2017-12-27T04:11:40.108Z,1.63
2017-12-27T04:14:11.994Z,1.60
2017-12-27T04:16:44.626Z,1.60
2017-12-27T04:19:16.540Z,1.40
2017-12-27T04:21:49.172Z,1.80
2017-12-27T04:24:21.064Z,1.63
2017-12-27T04:26:52.935Z,1.63
2017-12-27T04:29:25.575Z,1.70
2017-12-27T04:31:57.447Z,1.70
2017-12-27T04:34:29.339Z,1.70
2017-12-27T04:37:01.979Z,1.57
2017-12-27T04:39:33.858Z,1.83
2017-12-27T04:42:05.718Z,1.40
2017-12-27T04:44:37.615Z,1.80
2017-12-27T04:47:09.488Z,1.80
2017-12-27T04:49:41.378Z,1.80
2017-12-27T04:52:13.239Z,1.77
2017-12-27T04:54:45.247Z,1.60
2017-12-27T04:57:17.868Z,1.80
2017-12-27T04:59:49.806Z,1.37
2017-12-27T05:02:21.667Z,1.63
2017-12-27T05:04:53.550Z,1.80
2017-12-27T05:07:25.419Z,1.70
2017-12-27T05:09:57.315Z,1.40
2017-12-27T05:12:29.947Z,1.80
2017-12-27T05:15:02.172Z,1.63
2017-12-27T05:17:34.043Z,1.70
2017-12-27T05:20:05.930Z,2.00
2017-12-27T05:22:37.807Z,1.80
2017-12-27T05:25:09.691Z,1.67
2017-12-27T05:27:42.323Z,1.70
2017-12-27T05:30:14.215Z,1.63
2017-12-27T05:32:46.083Z,1.80
2017-12-27T05:35:17.983Z,1.67
2017-12-27T05:37:49.842Z,1.73
2017-12-27T05:40:21.752Z,1.73
2017-12-27T05:42:53.606Z,1.63
2017-12-27T05:45:25.495Z,1.43
2017-12-27T05:47:58.123Z,1.50
2017-12-27T05:50:30.039Z,1.80
2017-12-27T05:53:02.667Z,1.90
2017-12-27T05:55:34.543Z,2.07
2017-12-27T05:58:06.411Z,1.33
2017-12-27T06:00:38.286Z,1.50
2017-12-27T06:03:11.187Z,1.70
2017-12-27T06:05:43.085Z,1.30
2017-12-27T06:08:14.946Z,1.50
2017-12-27T06:10:46.842Z,1.37
2017-12-27T06:13:19.483Z,1.70
2017-12-27T06:15:51.717Z,1.40
2017-12-27T06:18:23.595Z,1.57
2017-12-27T06:20:55.483Z,1.43
2017-12-27T06:23:27.358Z,1.37
2017-12-27T06:25:59.239Z,1.50
2017-12-27T06:28:31.879Z,1.30
2017-12-27T06:31:03.774Z,1.47
2017-12-27T06:33:36.403Z,1.40
2017-12-27T06:36:08.298Z,1.50
2017-12-27T06:38:40.166Z,1.40
2017-12-27T06:41:12.830Z,1.40
2017-12-27T06:43:44.706Z,1.50
2017-12-27T06:46:17.363Z,1.50
2017-12-27T06:48:49.230Z,1.50
2017-12-27T06:51:21.111Z,1.50
2017-12-27T06:53:53.743Z,1.63
2017-12-27T06:56:25.634Z,1.60
2017-12-27T06:58:58.315Z,1.37
2017-12-27T07:01:30.207Z,1.90
2017-12-27T07:04:02.066Z,1.50
2017-12-27T07:06:33.964Z,1.57
2017-12-27T07:09:05.835Z,1.60
2017-12-27T07:11:37.720Z,1.60
2017-12-27T07:14:10.348Z,1.30
2017-12-27T07:16:42.242Z,1.53
2017-12-27T07:19:14.106Z,1.57
2017-12-27T07:21:45.986Z,1.40
2017-12-27T07:24:18.619Z,1.70
2017-12-27T07:26:50.538Z,1.70
2017-12-27T07:29:23.161Z,1.40
2017-12-27T07:31:55.048Z,1.57
2017-12-27T07:34:26.906Z,1.53
2017-12-27T07:36:58.802Z,1.67
2017-12-27T07:39:30.671Z,1.80
2017-12-27T07:42:02.555Z,1.57
2017-12-27T07:44:34.431Z,1.60
2017-12-27T07:47:06.339Z,1.70
2017-12-27T07:49:38.202Z,1.90
2017-12-27T07:52:10.107Z,1.83
2017-12-27T07:54:41.974Z,2.20
2017-12-27T07:57:13.870Z,1.80
2017-12-27T07:59:45.747Z,2.20
2017-12-27T08:02:17.639Z,2.37
2017-12-27T08:04:49.503Z,2.13
2017-12-27T08:07:21.404Z,1.93
2017-12-27T08:09:54.034Z,2.00
2017-12-27T08:12:26.763Z,2.20
2017-12-27T08:14:59.396Z,2.10
2017-12-27T08:17:31.282Z,2.10
2017-12-27T08:20:03.155Z,2.10
2017-12-27T08:22:35.799Z,2.30
2017-12-27T08:25:07.663Z,2.23
2017-12-27T08:27:39.558Z,2.17
2017-12-27T08:30:12.183Z,2.03
2017-12-27T08:32:44.074Z,2.30
2017-12-27T08:35:15.934Z,2.20
2017-12-27T08:37:47.832Z,2.20
2017-12-27T08:40:19.704Z,2.00
2017-12-27T08:42:51.641Z,2.10
2017-12-27T08:45:24.267Z,2.40
2017-12-27T08:47:56.163Z,2.13
2017-12-27T08:50:28.794Z,2.17
2017-12-27T08:53:00.678Z,2.00
2017-12-27T08:55:32.538Z,2.20
2017-12-27T08:58:04.410Z,2.20
2017-12-27T09:00:36.280Z,1.70
2017-12-27T09:03:08.926Z,2.13
2017-12-27T09:05:40.806Z,2.03
2017-12-27T09:08:12.702Z,2.00
2017-12-27T09:10:44.572Z,2.10
2017-12-27T09:13:16.467Z,1.93
2017-12-27T09:15:48.341Z,2.00
2017-12-27T09:18:20.238Z,2.10
2017-12-27T09:20:52.118Z,1.93
2017-12-27T09:23:23.994Z,2.37
2017-12-27T09:25:55.863Z,2.43
2017-12-27T09:28:27.746Z,2.00
2017-12-27T09:30:59.611Z,2.23
2017-12-27T09:33:31.502Z,1.80
2017-12-27T09:36:03.458Z,1.93
2017-12-27T09:38:36.086Z,1.93
2017-12-27T09:41:07.963Z,2.10
2017-12-27T09:43:39.862Z,1.80
2017-12-27T09:46:11.727Z,2.10
2017-12-27T09:48:43.616Z,2.20
2017-12-27T09:51:15.520Z,2.23
2017-12-27T09:53:48.181Z,1.93
2017-12-27T09:56:20.050Z,2.20
2017-12-27T09:58:52.705Z,2.10
2017-12-27T10:01:24.566Z,2.00
2017-12-27T10:03:56.461Z,2.00
2017-12-27T10:06:29.087Z,2.27
2017-12-27T10:09:00.962Z,2.23
2017-12-27T10:11:33.072Z,2.20
2017-12-27T10:14:05.008Z,2.17
2017-12-27T10:16:36.868Z,2.00
2017-12-27T10:19:08.755Z,2.10
2017-12-27T10:21:40.622Z,1.90
2017-12-27T10:24:12.514Z,2.30
2017-12-27T10:26:44.381Z,2.07
2017-12-27T10:29:16.270Z,1.87
2017-12-27T10:31:48.137Z,2.00
2017-12-27T10:34:20.786Z,2.20
2017-12-27T10:36:52.655Z,2.00
2017-12-27T10:39:24.558Z,2.00
2017-12-27T10:41:56.423Z,2.23
2017-12-27T10:44:28.314Z,2.10
2017-12-27T10:47:00.182Z,1.80
2017-12-27T10:49:32.074Z,2.00
2017-12-27T10:52:04.703Z,1.90
2017-12-27T10:54:36.582Z,2.00
2017-12-27T10:57:08.446Z,1.93
2017-12-27T10:59:40.347Z,1.80
2017-12-27T11:02:12.983Z,1.90
2017-12-27T11:04:44.871Z,1.67
2017-12-27T11:07:17.513Z,1.70
2017-12-27T11:09:49.390Z,1.90
2017-12-27T11:14:55.787Z,2.23
2017-12-27T11:17:27.653Z,3.20
2017-12-27T11:20:00.551Z,2.10
2017-12-27T11:22:32.419Z,1.80
2017-12-27T11:25:04.295Z,2.37
2017-12-27T11:27:36.162Z,1.57
2017-12-27T11:30:08.043Z,1.77
2017-12-27T11:32:39.923Z,1.63
2017-12-27T11:35:11.844Z,1.70
2017-12-27T11:37:43.703Z,1.47
2017-12-27T11:40:15.603Z,1.70
2017-12-27T11:42:47.466Z,1.57
2017-12-27T11:45:19.359Z,1.57
2017-12-27T11:47:51.223Z,1.67
2017-12-27T11:50:23.111Z,1.40
2017-12-27T11:52:54.983Z,1.60
2017-12-27T11:55:27.650Z,1.83
2017-12-27T11:57:59.515Z,1.90
2017-12-27T12:00:31.403Z,1.90
2017-12-27T12:03:03.274Z,2.03
2017-12-27T12:05:35.154Z,2.00
2017-12-27T12:08:07.024Z,1.93
2017-12-27T12:10:38.911Z,1.90
2017-12-27T12:13:10.779Z,1.70
2017-12-27T12:15:42.676Z,1.90
2017-12-27T12:18:16.347Z,1.50
2017-12-27T12:20:48.231Z,2.20
2017-12-27T12:23:20.095Z,1.60
2017-12-27T12:25:52.740Z,1.67
2017-12-27T12:28:24.607Z,1.50
2017-12-27T12:30:56.495Z,1.70
2017-12-27T12:33:29.127Z,1.77
2017-12-27T12:36:01.043Z,1.97
2017-12-27T12:38:32.916Z,1.73
2017-12-27T12:41:04.804Z,1.50
2017-12-27T12:43:36.667Z,1.63
2017-12-27T12:46:09.310Z,1.60
2017-12-27T12:48:41.178Z,1.60
2017-12-27T12:51:13.059Z,1.70
2017-12-27T12:53:44.926Z,1.60
2017-12-27T12:56:17.578Z,1.90
2017-12-27T12:58:49.446Z,3.40
2017-12-27T13:01:21.318Z,1.47
2017-12-27T13:03:53.202Z,1.70
2017-12-27T13:06:25.086Z,1.53
2017-12-27T13:08:57.719Z,1.60
2017-12-27T13:11:29.611Z,1.67
2017-12-27T13:14:01.482Z,1.50
2017-12-27T13:16:34.134Z,1.67
2017-12-27T13:19:06.005Z,1.50
2017-12-27T13:21:37.891Z,1.90
2017-12-27T13:24:10.522Z,1.80
2017-12-27T13:26:42.438Z,2.87
2017-12-27T13:29:15.062Z,2.70
2017-12-27T13:31:46.955Z,1.83
2017-12-27T13:34:19.587Z,1.90
2017-12-27T13:36:51.478Z,1.60
2017-12-27T13:39:23.347Z,1.60
2017-12-27T13:41:55.251Z,1.80
2017-12-27T13:44:27.130Z,1.97
2017-12-27T13:46:59.022Z,1.83
2017-12-27T13:49:30.886Z,1.80
2017-12-27T13:52:03.558Z,1.90
2017-12-27T13:54:35.419Z,1.70
2017-12-27T13:57:07.311Z,1.63
2017-12-27T13:59:39.185Z,1.60
2017-12-27T14:02:11.078Z,1.80
2017-12-27T14:04:42.950Z,1.83
2017-12-27T14:07:14.822Z,1.60
2017-12-27T14:09:46.691Z,1.47
2017-12-27T14:12:19.346Z,1.57
2017-12-27T14:14:51.219Z,1.70
2017-12-27T14:17:23.102Z,1.77
2017-12-27T14:19:55.748Z,1.70
2017-12-27T14:22:27.668Z,1.80
2017-12-27T14:24:59.534Z,2.03
2017-12-27T14:27:31.414Z,1.57
2017-12-27T14:30:03.291Z,2.30
2017-12-27T14:32:35.179Z,2.00
2017-12-27T14:35:07.810Z,2.00
2017-12-27T14:37:39.707Z,2.00
2017-12-27T14:40:12.339Z,2.33
2017-12-27T14:42:44.227Z,2.20
2017-12-27T14:45:16.098Z,1.93
2017-12-27T14:47:47.990Z,2.10
2017-12-27T14:50:19.854Z,2.00
2017-12-27T14:52:51.751Z,2.50
2017-12-27T14:55:23.619Z,4.03
2017-12-27T14:57:55.511Z,3.47
2017-12-27T15:00:28.139Z,3.30
2017-12-27T15:03:00.022Z,2.37
2017-12-27T15:05:31.903Z,3.43
2017-12-27T15:08:04.551Z,3.47
2017-12-27T15:10:36.427Z,3.50
2017-12-27T15:13:08.302Z,2.93
2017-12-27T15:15:40.939Z,5.93
2017-12-27T15:18:12.824Z,4.60
2017-12-27T15:20:44.691Z,3.63
2017-12-27T15:23:16.575Z,2.87
2017-12-27T15:25:48.439Z,2.80
2017-12-27T15:28:20.322Z,2.30
2017-12-27T15:30:52.191Z,2.03
2017-12-27T15:33:24.121Z,2.40
2017-12-27T15:35:55.952Z,2.07
2017-12-27T15:38:27.846Z,2.00
2017-12-27T15:40:59.714Z,1.93
2017-12-27T15:43:31.601Z,1.67
2017-12-27T15:46:03.471Z,1.80
2017-12-27T15:48:35.346Z,1.90
2017-12-27T15:51:07.220Z,1.63
2017-12-27T15:53:39.870Z,2.30
2017-12-27T15:56:11.738Z,1.80
2017-12-27T15:58:43.635Z,2.50
2017-12-27T16:01:15.502Z,2.50
2017-12-27T16:03:47.403Z,2.97
2017-12-27T16:06:19.267Z,3.60
2017-12-27T16:08:51.154Z,2.93
2017-12-27T16:11:23.799Z,2.40
2017-12-27T16:13:55.691Z,2.30
2017-12-27T16:16:28.318Z,2.67
2017-12-27T16:19:00.211Z,2.07
2017-12-27T16:21:32.079Z,2.53
2017-12-27T16:24:03.983Z,1.97
2017-12-27T16:26:35.851Z,2.23
2017-12-27T16:29:07.808Z,2.13
2017-12-27T16:31:39.633Z,2.30
2017-12-27T16:34:12.286Z,2.60
2017-12-27T16:36:44.186Z,2.13
2017-12-27T16:39:16.823Z,4.50
2017-12-27T16:41:48.690Z,4.47
2017-12-27T16:44:20.570Z,3.50
2017-12-27T16:46:53.199Z,2.93
2017-12-27T16:49:25.095Z,2.47
2017-12-27T16:51:56.959Z,2.47
2017-12-27T16:54:28.859Z,2.70
2017-12-27T16:57:00.723Z,2.47
2017-12-27T16:59:32.632Z,2.50
2017-12-27T17:02:04.498Z,2.10
2017-12-27T17:04:37.166Z,2.30
2017-12-27T17:07:09.041Z,2.23
2017-12-27T17:09:40.955Z,2.83
2017-12-27T17:12:12.810Z,2.30
2017-12-27T17:14:44.714Z,4.03
2017-12-27T17:17:16.580Z,3.63
2017-12-27T17:19:48.472Z,3.13
2017-12-27T17:22:20.340Z,2.27
2017-12-27T17:24:52.229Z,2.40
2017-12-27T17:27:24.096Z,2.40
2017-12-27T17:29:55.990Z,2.27
2017-12-27T17:32:28.626Z,2.33
2017-12-27T17:35:00.534Z,2.57
2017-12-27T17:37:33.162Z,2.53
2017-12-27T17:40:05.070Z,2.40
2017-12-27T17:42:37.703Z,2.60
2017-12-27T17:45:09.603Z,2.60
2017-12-27T17:47:42.238Z,2.53
2017-12-27T17:50:14.135Z,2.87
2017-12-27T17:52:46.768Z,2.40
2017-12-27T17:55:18.670Z,3.30
2017-12-27T17:57:50.531Z,2.83
2017-12-27T18:00:22.423Z,3.00
2017-12-27T18:02:54.286Z,3.23
2017-12-27T18:05:26.174Z,3.60
2017-12-27T18:07:58.042Z,6.33
2017-12-27T18:10:29.929Z,4.60
2017-12-27T18:13:01.782Z,4.00
2017-12-27T18:15:33.666Z,3.30
2017-12-27T18:18:06.407Z,2.83
2017-12-27T18:20:38.306Z,3.40
2017-12-27T18:23:10.934Z,3.10
2017-12-27T18:25:42.830Z,3.20
2017-12-27T18:28:15.463Z,2.90
2017-12-27T18:30:47.347Z,2.70
2017-12-27T18:33:19.215Z,2.90
2017-12-27T18:35:51.103Z,2.87
2017-12-27T18:38:23.738Z,2.47
2017-12-27T18:40:55.625Z,2.40
2017-12-27T18:43:27.490Z,2.80
2017-12-27T18:46:00.142Z,2.73
2017-12-27T18:48:32.004Z,2.50
2017-12-27T18:51:03.884Z,3.20
2017-12-27T18:53:35.752Z,3.10
2017-12-27T18:56:08.407Z,2.87
2017-12-27T18:58:40.274Z,2.53
2017-12-27T19:01:12.160Z,2.43
2017-12-27T19:03:44.795Z,2.80
2017-12-27T19:06:16.683Z,4.07
2017-12-27T19:08:49.322Z,3.13
2017-12-27T19:11:21.221Z,3.53
2017-12-27T19:13:53.075Z,3.00
2017-12-27T19:16:24.967Z,3.30
2017-12-27T19:18:56.837Z,3.13
2017-12-27T19:21:28.727Z,4.13
2017-12-27T19:24:00.598Z,3.83
2017-12-27T19:26:32.485Z,4.10
2017-12-27T19:29:05.830Z,3.17
2017-12-27T19:31:37.714Z,3.73
2017-12-27T19:34:09.587Z,3.53
2017-12-27T19:36:41.487Z,3.87
2017-12-27T19:39:13.343Z,4.37
2017-12-27T19:41:45.243Z,4.13
2017-12-27T19:44:17.113Z,4.20
2017-12-27T19:46:49.004Z,4.47
2017-12-27T19:49:21.641Z,4.10
2017-12-27T19:51:53.522Z,4.73
2017-12-27T19:54:26.171Z,4.67
2017-12-27T19:56:58.064Z,5.90
2017-12-27T19:59:29.991Z,4.70
2017-12-27T20:02:01.894Z,5.10
2017-12-27T20:04:34.531Z,4.90
2017-12-27T20:07:06.426Z,4.57
2017-12-27T20:09:38.289Z,4.50
2017-12-27T20:12:10.931Z,3.60
2017-12-27T20:14:42.804Z,3.87
2017-12-27T20:17:14.690Z,3.23
2017-12-27T20:19:47.323Z,3.87
2017-12-27T20:22:19.218Z,3.80
2017-12-27T20:24:51.420Z,3.50
2017-12-27T20:27:23.303Z,3.60
2017-12-27T20:29:55.167Z,4.47
2017-12-27T20:32:27.051Z,4.60
2017-12-27T20:34:58.954Z,4.90
2017-12-27T20:37:31.601Z,4.60
2017-12-27T20:40:03.467Z,4.40
2017-12-27T20:42:35.356Z,4.13
2017-12-27T20:45:07.222Z,4.20
2017-12-27T20:47:39.126Z,4.13
2017-12-27T20:50:10.991Z,3.80
2017-12-27T20:52:42.880Z,3.10
2017-12-27T20:55:15.507Z,3.77
2017-12-27T20:57:47.378Z,3.67
